Time;durP1;ratioP1;P1;durP2;ratioP2;P2;SDS_P1;SDS_P2;PMS_P1;PMS_P2;Temp;Humidity;BMP_temperature;BMP_pressure;BME280_temperature;BME280_humidity;BME280_pressure;Samples;Min_cycle;Max_cycle;Signal;HPM_P1;HPM_P2
2021/11/05 00:01:43;;;;;;;14.20;9.10;;;4.70;99.80;;;;;;5092460;28;20445;-72
2021/11/05 00:04:11;;;;;;;14.80;9.68;;;4.60;99.90;;;;;;5089729;28;20071;-72
2021/11/05 00:06:38;;;;;;;14.73;9.15;;;4.50;99.90;;;;;;5090209;28;20047;-72
2021/11/05 00:09:06;;;;;;;16.92;9.95;;;4.50;99.90;;;;;;5091551;28;20387;-72
2021/11/05 00:14:55;;;;;;;18.10;9.55;;;4.40;99.90;;;;;;5096187;28;20038;-72
2021/11/05 00:17:39;;;;;;;20.70;10.10;;;4.30;99.90;;;;;;5071077;28;20540;-72
2021/11/05 00:20:07;;;;;;;21.30;11.25;;;4.30;99.90;;;;;;5091294;28;20097;-72
2021/11/05 00:22:34;;;;;;;19.75;10.90;;;4.30;99.90;;;;;;5090264;28;20124;-72
2021/11/05 00:25:06;;;;;;;;;;;4.20;99.90;;;;;;5090903;28;20052;-72
2021/11/05 00:27:35;;;;;;;17.17;10.60;;;4.10;99.90;;;;;;5091549;28;19967;-71
2021/11/05 00:30:05;;;;;;;19.17;10.77;;;4.00;99.90;;;;;;5090719;28;20460;-73
2021/11/05 00:32:32;;;;;;;22.77;11.18;;;3.90;99.90;;;;;;5056760;28;20168;-72
2021/11/05 00:34:59;;;;;;;23.52;13.30;;;3.90;99.90;;;;;;5088276;28;20172;-72
2021/11/05 00:37:26;;;;;;;23.27;12.55;;;3.90;99.90;;;;;;5089007;28;20048;-73
2021/11/05 00:39:53;;;;;;;23.38;13.43;;;3.80;99.90;;;;;;5089057;28;20083;-72
2021/11/05 00:42:20;;;;;;;16.30;12.00;;;3.80;99.90;;;;;;5089332;28;20056;-73
2021/11/05 00:44:47;;;;;;;26.27;14.07;;;3.80;99.90;;;;;;5089845;28;20127;-72
2021/11/05 00:47:18;;;;;;;20.20;13.00;;;3.70;99.90;;;;;;5089343;28;20090;-74
2021/11/05 00:49:45;;;;;;;24.58;14.38;;;3.70;99.90;;;;;;5089078;28;20413;-73
2021/11/05 00:52:12;;;;;;;23.13;12.65;;;3.60;99.90;;;;;;5095201;28;20044;-72
2021/11/05 00:54:39;;;;;;;24.40;15.45;;;3.50;99.90;;;;;;5100001;28;20101;-74
2021/11/05 00:57:06;;;;;;;27.42;16.83;;;3.50;99.90;;;;;;5090035;28;20048;-73
2021/11/05 00:59:33;;;;;;;24.23;16.63;;;3.50;99.90;;;;;;5086460;28;20052;-72
2021/11/05 01:02:00;;;;;;;30.38;19.85;;;3.50;99.90;;;;;;5093137;28;20447;-73
2021/11/05 01:04:28;;;;;;;36.08;19.48;;;3.40;99.90;;;;;;5092932;28;20058;-73
2021/11/05 01:06:55;;;;;;;32.40;19.05;;;3.40;99.90;;;;;;5094088;28;20071;-73
2021/11/05 01:09:23;;;;;;;34.97;21.55;;;3.40;99.90;;;;;;5090567;28;20087;-72
2021/11/05 01:11:50;;;;;;;31.52;21.25;;;3.40;99.90;;;;;;5088944;28;20090;-73
2021/11/05 01:14:18;;;;;;;31.60;20.88;;;3.30;99.90;;;;;;5090745;28;20119;-73
2021/11/05 01:16:45;;;;;;;34.63;23.02;;;3.30;99.90;;;;;;5071686;28;20116;-74
2021/11/05 01:19:12;;;;;;;36.15;22.88;;;3.30;99.90;;;;;;5089179;28;20060;-73
2021/11/05 01:21:39;;;;;;;34.00;21.95;;;3.30;99.90;;;;;;5090680;28;20056;-73
2021/11/05 01:24:06;;;;;;;36.53;22.45;;;3.20;99.90;;;;;;5090191;28;20059;-73
2021/11/05 01:26:33;;;;;;;32.80;23.15;;;3.20;99.90;;;;;;5089186;28;20134;-73
2021/11/05 01:29:00;;;;;;;37.15;24.17;;;3.20;99.90;;;;;;5091143;28;20098;-74
2021/11/05 01:31:30;;;;;;;44.95;27.77;;;3.20;99.90;;;;;;5088225;28;20059;-72
2021/11/05 01:33:57;;;;;;;44.53;27.83;;;3.20;99.90;;;;;;5089350;28;20454;-75
2021/11/05 01:36:24;;;;;;;42.50;28.23;;;3.10;99.90;;;;;;5088860;28;20072;-73
2021/11/05 01:38:51;;;;;;;45.97;26.98;;;3.10;99.90;;;;;;5088346;28;20071;-73
2021/11/05 01:41:19;;;;;;;51.95;32.47;;;3.10;99.90;;;;;;5089878;28;20143;-73
2021/11/05 01:43:47;;;;;;;46.25;29.48;;;3.10;99.90;;;;;;5089857;28;20168;-74
2021/11/05 01:46:18;;;;;;;49.38;31.00;;;3.10;99.90;;;;;;5070651;28;20063;-73
2021/11/05 01:48:46;;;;;;;49.08;32.97;;;3.10;99.90;;;;;;5085685;28;20066;-73
2021/11/05 01:51:16;;;;;;;50.83;33.05;;;3.10;99.90;;;;;;5071863;28;20103;-73
2021/11/05 01:53:45;;;;;;;56.95;35.63;;;3.00;99.90;;;;;;5088672;28;20052;-73
2021/11/05 01:56:12;;;;;;;63.03;39.05;;;3.00;99.90;;;;;;5070990;28;20109;-73
2021/11/05 01:58:39;;;;;;;62.97;38.78;;;3.00;99.90;;;;;;5101834;28;20089;-73
2021/11/05 02:01:07;;;;;;;61.38;37.88;;;3.00;99.90;;;;;;5098033;28;20173;-72
2021/11/05 02:03:34;;;;;;;54.83;37.30;;;3.00;99.90;;;;;;5087987;28;20073;-72
2021/11/05 02:06:01;;;;;;;61.50;37.83;;;3.00;99.90;;;;;;5088357;28;20075;-72
2021/11/05 02:08:28;;;;;;;63.80;39.22;;;3.00;99.90;;;;;;5087119;28;20453;-72
2021/11/05 02:10:56;;;;;;;59.80;37.67;;;2.90;99.90;;;;;;5089304;28;20071;-72
2021/11/05 02:13:27;;;;;;;60.60;37.55;;;2.90;99.90;;;;;;5088112;28;20097;-72
2021/11/05 02:15:55;;;;;;;62.65;38.65;;;2.90;99.90;;;;;;5089236;28;20101;-73
2021/11/05 02:18:22;;;;;;;66.30;41.05;;;2.80;99.90;;;;;;5089168;28;20092;-73
2021/11/05 02:20:55;;;;;;;61.00;38.88;;;2.70;99.90;;;;;;5088075;28;20052;-71
2021/11/05 02:23:24;;;;;;;69.05;41.85;;;2.70;99.90;;;;;;5087015;28;20093;-73
2021/11/05 02:25:51;;;;;;;66.53;41.28;;;2.70;99.90;;;;;;5068202;28;20052;-72
2021/11/05 02:28:18;;;;;;;63.75;40.95;;;2.70;99.90;;;;;;5087248;28;20052;-73
2021/11/05 02:30:47;;;;;;;62.08;39.53;;;2.60;99.90;;;;;;5088765;28;20048;-73
2021/11/05 02:33:14;;;;;;;66.45;41.47;;;2.60;99.90;;;;;;5086557;28;20040;-72
2021/11/05 02:35:43;;;;;;;60.97;37.22;;;2.60;99.90;;;;;;5087610;28;20052;-74
2021/11/05 02:38:10;;;;;;;63.72;41.10;;;2.60;99.90;;;;;;5085340;28;20131;-73
2021/11/05 02:40:38;;;;;;;56.80;37.63;;;2.50;99.90;;;;;;5087369;28;20067;-73
2021/11/05 02:43:05;;;;;;;57.22;37.95;;;2.50;99.90;;;;;;5088790;28;20387;-73
2021/11/05 02:45:32;;;;;;;55.22;34.53;;;2.50;99.90;;;;;;5065982;28;20044;-73
2021/11/05 02:47:59;;;;;;;59.90;34.60;;;2.50;99.90;;;;;;5088864;28;20081;-72
2021/11/05 02:50:26;;;;;;;54.30;36.30;;;2.50;99.90;;;;;;5086745;28;20093;-73
2021/11/05 02:52:53;;;;;;;51.35;32.63;;;2.50;99.90;;;;;;5087098;28;20044;-73
2021/11/05 02:55:21;;;;;;;45.75;29.63;;;2.50;99.90;;;;;;5088640;28;20549;-73
2021/11/05 02:57:48;;;;;;;46.15;29.73;;;2.50;99.90;;;;;;5095806;28;20118;-72
2021/11/05 03:00:16;;;;;;;51.90;29.85;;;2.40;99.90;;;;;;5098108;28;20453;-72
2021/11/05 03:02:43;;;;;;;46.60;27.77;;;2.40;99.90;;;;;;5068304;28;20078;-72
2021/11/05 03:05:11;;;;;;;39.40;26.15;;;2.40;99.90;;;;;;5078734;28;20113;-72
2021/11/05 03:07:38;;;;;;;40.85;24.92;;;2.50;99.90;;;;;;5087770;28;20048;-72
2021/11/05 03:10:06;;;;;;;36.85;26.73;;;2.50;99.90;;;;;;5068047;28;20642;-72
2021/11/05 03:12:33;;;;;;;41.33;23.77;;;2.40;99.90;;;;;;5087784;28;20075;-72
2021/11/05 03:15:00;;;;;;;39.15;22.13;;;2.40;99.90;;;;;;5086999;28;20124;-72
2021/11/05 03:17:29;;;;;;;35.45;22.63;;;2.40;99.90;;;;;;5087731;28;20109;-73
2021/11/05 03:19:56;;;;;;;33.75;21.77;;;2.40;99.90;;;;;;5088576;28;20074;-72
2021/11/05 03:22:23;;;;;;;46.58;23.70;;;2.40;99.90;;;;;;5088017;28;20094;-72
2021/11/05 03:24:50;;;;;;;31.25;19.70;;;2.30;99.90;;;;;;5087808;28;20541;-72
2021/11/05 03:27:17;;;;;;;30.23;19.08;;;2.30;99.90;;;;;;5088866;28;20101;-73
2021/11/05 03:29:44;;;;;;;36.17;20.38;;;2.30;99.90;;;;;;5117375;28;20041;-74
2021/11/05 03:32:11;;;;;;;31.33;19.35;;;2.30;99.90;;;;;;5088883;28;20230;-74
2021/11/05 03:34:38;;;;;;;32.38;18.85;;;2.30;99.90;;;;;;5087929;28;20056;-72
2021/11/05 03:37:06;;;;;;;30.40;18.52;;;2.30;99.90;;;;;;5088911;28;20060;-73
2021/11/05 03:39:33;;;;;;;27.67;16.33;;;2.30;99.90;;;;;;5087087;28;20051;-74
2021/11/05 03:42:00;;;;;;;31.05;17.05;;;2.30;99.90;;;;;;5066874;28;20673;-70
2021/11/05 03:44:29;;;;;;;24.42;15.32;;;2.30;99.90;;;;;;5086353;28;20083;-74
2021/11/05 03:46:56;;;;;;;27.90;15.45;;;2.30;99.90;;;;;;5071349;28;20080;-74
2021/11/05 03:49:23;;;;;;;28.38;14.63;;;2.30;99.90;;;;;;5088560;28;20064;-73
2021/11/05 03:51:50;;;;;;;22.23;15.23;;;2.30;99.90;;;;;;5087660;28;20123;-73
2021/11/05 03:54:18;;;;;;;23.88;15.07;;;2.30;99.90;;;;;;5089592;28;20088;-74
2021/11/05 03:56:45;;;;;;;21.63;14.98;;;2.30;99.90;;;;;;5086868;28;20403;-73
2021/11/05 03:59:12;;;;;;;24.85;14.10;;;2.30;99.90;;;;;;5092078;28;20494;-72
2021/11/05 04:01:39;;;;;;;23.65;15.05;;;2.30;99.90;;;;;;5086598;28;20052;-72
2021/11/05 04:04:05;;;;;;;20.92;13.90;;;2.30;99.90;;;;;;5087250;28;20151;-72
2021/11/05 04:06:34;;;;;;;23.25;13.38;;;2.40;99.90;;;;;;5087439;28;20044;-72
2021/11/05 04:09:01;;;;;;;20.20;13.60;;;2.30;99.90;;;;;;5088855;28;20052;-72
2021/11/05 04:11:28;;;;;;;21.48;12.70;;;2.30;99.90;;;;;;5090917;28;20040;-72
2021/11/05 04:13:55;;;;;;;20.98;12.13;;;2.20;99.90;;;;;;5091365;28;20139;-72
2021/11/05 04:16:22;;;;;;;20.75;11.90;;;2.20;99.90;;;;;;5088713;28;20048;-73
2021/11/05 04:18:49;;;;;;;18.50;11.90;;;2.20;99.90;;;;;;5090942;28;20055;-73
2021/11/05 04:21:16;;;;;;;17.70;11.88;;;2.20;99.90;;;;;;5074466;28;20056;-73
2021/11/05 04:23:43;;;;;;;21.38;13.40;;;2.10;99.90;;;;;;5092271;28;20048;-73
2021/11/05 04:26:10;;;;;;;17.52;11.35;;;2.10;99.90;;;;;;5072476;28;20086;-73
2021/11/05 04:28:38;;;;;;;18.17;11.15;;;2.10;99.90;;;;;;5094444;28;20138;-73
2021/11/05 04:31:05;;;;;;;17.80;11.13;;;2.10;99.90;;;;;;5072238;28;20102;-71
2021/11/05 04:33:34;;;;;;;18.33;11.73;;;2.10;99.90;;;;;;5091668;28;20097;-72
2021/11/05 04:36:01;;;;;;;18.70;11.45;;;2.10;99.90;;;;;;5091531;28;20131;-73
2021/11/05 04:38:30;;;;;;;16.35;9.70;;;2.10;99.90;;;;;;5058387;28;20040;-73
2021/11/05 04:40:57;;;;;;;15.60;9.65;;;2.20;99.90;;;;;;5073906;28;20449;-73
2021/11/05 04:43:24;;;;;;;17.63;10.57;;;2.20;99.90;;;;;;5089782;28;20047;-73
2021/11/05 04:45:51;;;;;;;15.73;10.13;;;2.20;99.90;;;;;;5089475;28;20063;-72
2021/11/05 04:48:18;;;;;;;16.23;10.35;;;2.20;99.90;;;;;;5073639;28;20518;-72
2021/11/05 04:50:46;;;;;;;17.10;10.15;;;2.20;99.90;;;;;;5054333;28;20044;-72
2021/11/05 04:53:13;;;;;;;15.85;9.98;;;2.20;99.90;;;;;;5090227;28;20467;-72
2021/11/05 04:55:42;;;;;;;17.15;11.13;;;2.20;99.90;;;;;;5090602;28;20096;-71
2021/11/05 04:58:09;;;;;;;17.95;10.07;;;2.20;99.90;;;;;;5078699;28;20059;-73
2021/11/05 05:00:36;;;;;;;14.52;10.13;;;2.20;99.90;;;;;;5090010;28;20052;-73
2021/11/05 05:03:04;;;;;;;13.70;9.55;;;2.10;99.90;;;;;;5091346;28;20044;-72
2021/11/05 05:05:31;;;;;;;17.35;9.85;;;2.10;99.90;;;;;;5090669;28;20044;-72
2021/11/05 05:07:58;;;;;;;13.43;10.25;;;2.10;99.90;;;;;;5091921;28;20048;-72
2021/11/05 05:10:26;;;;;;;21.02;11.57;;;2.10;99.90;;;;;;5070233;28;20044;-73
2021/11/05 05:12:53;;;;;;;15.02;9.90;;;2.10;99.90;;;;;;5084897;28;20048;-73
2021/11/05 05:15:20;;;;;;;15.23;9.90;;;2.00;99.90;;;;;;5089080;28;20048;-73
2021/11/05 05:17:47;;;;;;;17.98;9.60;;;2.00;99.90;;;;;;5072088;28;20048;-73
2021/11/05 05:20:16;;;;;;;19.10;10.13;;;2.00;99.90;;;;;;5089955;28;20407;-73
2021/11/05 05:22:43;;;;;;;18.13;11.67;;;1.90;99.90;;;;;;5089175;28;20404;-71
2021/11/05 05:25:11;;;;;;;16.92;9.35;;;1.90;99.90;;;;;;5091510;28;20111;-72
2021/11/05 05:27:38;;;;;;;13.88;8.77;;;1.90;99.90;;;;;;5076681;28;20051;-72
2021/11/05 05:30:08;;;;;;;19.98;9.57;;;1.90;99.90;;;;;;5092976;28;20051;-72
2021/11/05 05:32:35;;;;;;;13.68;9.40;;;1.80;99.90;;;;;;5088447;28;20052;-73
2021/11/05 05:35:02;;;;;;;14.57;8.95;;;1.80;99.90;;;;;;5091151;28;20093;-72
2021/11/05 05:37:29;;;;;;;19.25;10.85;;;1.80;99.90;;;;;;5088720;28;20052;-72
2021/11/05 05:39:56;;;;;;;15.73;9.90;;;1.80;99.90;;;;;;5089695;28;20040;-72
2021/11/05 05:42:23;;;;;;;19.90;10.77;;;1.80;99.90;;;;;;5091060;28;20503;-72
2021/11/05 05:44:50;;;;;;;16.85;10.45;;;1.80;99.90;;;;;;5089217;28;20048;-73
2021/11/05 05:47:17;;;;;;;18.48;11.23;;;1.80;99.90;;;;;;5089036;28;20051;-72
2021/11/05 05:49:44;;;;;;;17.02;10.73;;;1.70;99.90;;;;;;5088834;28;20055;-72
2021/11/05 05:52:11;;;;;;;16.52;10.30;;;1.70;99.90;;;;;;5089422;28;20154;-72
2021/11/05 05:54:39;;;;;;;15.65;10.20;;;1.70;99.90;;;;;;5089776;28;20059;-72
2021/11/05 05:57:06;;;;;;;21.05;11.32;;;1.70;99.90;;;;;;5091362;28;20416;-73
2021/11/05 05:59:33;;;;;;;17.10;10.00;;;1.70;99.90;;;;;;5096168;28;20366;-73
2021/11/05 06:02:00;;;;;;;16.90;10.00;;;1.70;99.90;;;;;;5089813;28;20436;-72
2021/11/05 06:04:27;;;;;;;15.98;11.52;;;1.60;99.90;;;;;;5089172;28;20048;-72
2021/11/05 06:06:54;;;;;;;16.92;10.88;;;1.60;99.90;;;;;;5090627;28;20040;-73
2021/11/05 06:09:21;;;;;;;20.20;11.57;;;1.60;99.90;;;;;;5091214;28;20054;-72
2021/11/05 06:11:48;;;;;;;15.68;9.85;;;1.60;99.90;;;;;;5091548;28;20089;-73
2021/11/05 06:14:16;;;;;;;15.73;10.45;;;1.60;99.90;;;;;;5089648;28;20059;-73
2021/11/05 06:16:43;;;;;;;17.30;10.43;;;1.60;99.90;;;;;;5089265;28;20055;-72
2021/11/05 06:19:10;;;;;;;18.73;12.20;;;1.50;99.90;;;;;;5072607;28;20055;-71
2021/11/05 06:21:37;;;;;;;18.25;11.02;;;1.50;99.90;;;;;;5095845;28;20051;-71
2021/11/05 06:24:04;;;;;;;19.65;11.93;;;1.50;99.90;;;;;;5097111;28;20048;-73
2021/11/05 06:26:31;;;;;;;21.52;12.15;;;1.50;99.90;;;;;;5097502;28;20048;-71
2021/11/05 06:29:02;;;;;;;21.67;11.73;;;1.50;99.90;;;;;;5093636;28;20039;-72
2021/11/05 06:31:35;;;;;;;20.60;12.25;;;1.50;99.90;;;;;;5087942;28;20439;-72
2021/11/05 06:34:03;;;;;;;21.77;11.82;;;1.50;99.90;;;;;;5088868;28;20048;-72
2021/11/05 06:36:30;;;;;;;20.38;11.90;;;1.50;99.90;;;;;;5071680;28;20040;-72
2021/11/05 06:38:57;;;;;;;20.80;11.20;;;1.50;99.90;;;;;;5088598;28;20047;-71
2021/11/05 06:41:25;;;;;;;20.42;13.88;;;1.50;99.90;;;;;;5088310;28;20113;-73
2021/11/05 06:43:53;;;;;;;23.42;13.07;;;1.50;99.90;;;;;;5090575;28;20135;-71
2021/11/05 06:46:20;;;;;;;19.05;12.10;;;1.50;99.90;;;;;;5087466;28;20485;-71
2021/11/05 06:48:47;;;;;;;20.30;11.30;;;1.40;99.90;;;;;;5088465;28;20077;-71
2021/11/05 06:51:14;;;;;;;32.50;12.95;;;1.40;99.90;;;;;;5088683;28;20051;-72
2021/11/05 06:53:42;;;;;;;19.25;11.40;;;1.40;99.90;;;;;;5098203;27;20043;-73
2021/11/05 06:56:10;;;;;;;21.10;12.70;;;1.30;99.90;;;;;;5088865;28;20054;-73
2021/11/05 06:58:39;;;;;;;20.35;12.77;;;1.30;99.90;;;;;;5089690;28;20083;-72
2021/11/05 07:01:07;;;;;;;20.42;11.43;;;1.30;99.90;;;;;;5070716;28;20115;-72
2021/11/05 07:03:34;;;;;;;25.20;13.90;;;1.30;99.90;;;;;;5070712;28;20048;-72
2021/11/05 07:06:01;;;;;;;22.48;13.13;;;1.30;99.90;;;;;;5070058;28;20075;-72
2021/11/05 07:08:29;;;;;;;20.35;12.50;;;1.30;99.90;;;;;;5088285;28;20043;-71
2021/11/05 07:10:56;;;;;;;23.80;13.40;;;1.30;99.90;;;;;;5089335;28;20047;-71
2021/11/05 07:13:23;;;;;;;22.42;11.88;;;1.20;99.90;;;;;;5087954;28;20666;-72
2021/11/05 07:15:51;;;;;;;24.30;13.02;;;1.30;99.90;;;;;;5087473;28;20082;-73
2021/11/05 07:18:19;;;;;;;24.67;13.63;;;1.20;99.90;;;;;;5054294;28;20048;-73
2021/11/05 07:20:46;;;;;;;28.23;13.23;;;1.20;99.90;;;;;;5071209;28;20521;-73
2021/11/05 07:23:13;;;;;;;26.58;14.18;;;1.20;99.90;;;;;;5055686;28;20056;-73
2021/11/05 07:25:41;;;;;;;23.92;14.45;;;1.20;99.90;;;;;;5068024;28;20079;-72
2021/11/05 07:28:08;;;;;;;26.15;14.77;;;1.20;99.90;;;;;;5095973;28;20035;-73
2021/11/05 07:30:36;;;;;;;35.28;16.48;;;1.20;99.90;;;;;;5087446;28;20069;-72
2021/11/05 07:33:04;;;;;;;31.67;16.80;;;1.30;99.90;;;;;;5068674;28;20087;-73
2021/11/05 07:35:31;;;;;;;28.23;15.52;;;1.30;99.90;;;;;;5081991;28;20043;-73
2021/11/05 07:37:59;;;;;;;29.05;15.07;;;1.40;99.90;;;;;;5058379;28;20052;-71
2021/11/05 07:40:27;;;;;;;26.42;16.42;;;1.40;99.90;;;;;;5089754;28;20103;-72
2021/11/05 07:42:56;;;;;;;29.27;15.52;;;1.50;99.90;;;;;;5088435;28;20471;-71
2021/11/05 07:45:25;;;;;;;23.85;15.48;;;1.50;99.90;;;;;;5090592;28;20158;-73
2021/11/05 07:47:55;;;;;;;24.05;14.35;;;1.50;99.90;;;;;;5091736;28;20055;-70
2021/11/05 07:50:23;;;;;;;;;;;1.60;99.90;;;;;;5092081;28;20058;-67
2021/11/05 07:52:50;;;;;;;198.10;118.63;;;1.60;99.90;;;;;;5083007;28;20287;-68
2021/11/05 07:55:17;;;;;;;55.35;30.50;;;1.70;99.90;;;;;;5092506;28;20048;-70
2021/11/05 07:57:44;;;;;;;35.75;21.20;;;1.70;99.90;;;;;;5076079;28;20052;-69
2021/11/05 08:00:11;;;;;;;31.88;19.08;;;1.70;99.90;;;;;;5092450;28;20048;-69
2021/11/05 08:02:39;;;;;;;34.83;18.58;;;1.80;99.90;;;;;;5091953;28;20059;-71
2021/11/05 08:05:08;;;;;;;33.00;17.65;;;1.80;99.90;;;;;;5090197;28;20484;-69
2021/11/05 08:07:36;;;;;;;28.02;17.35;;;1.90;99.90;;;;;;5088317;28;20036;-71
2021/11/05 08:10:04;;;;;;;33.08;17.42;;;1.90;99.90;;;;;;5073245;28;20052;-69
2021/11/05 08:12:31;;;;;;;30.77;16.95;;;2.00;99.90;;;;;;5087973;28;20048;-68
2021/11/05 08:14:58;;;;;;;32.33;18.98;;;2.00;99.90;;;;;;5091103;28;20641;-68
2021/11/05 08:17:24;;;;;;;30.50;17.30;;;2.10;99.90;;;;;;5091979;28;20094;-67
2021/11/05 08:19:51;;;;;;;28.35;16.63;;;2.10;99.90;;;;;;5090939;28;20058;-68
2021/11/05 08:22:19;;;;;;;32.47;17.33;;;2.20;99.90;;;;;;5079674;28;20119;-70
2021/11/05 08:24:47;;;;;;;33.80;19.60;;;2.20;99.90;;;;;;5113155;28;20131;-69
2021/11/05 08:27:14;;;;;;;38.22;19.85;;;2.30;99.90;;;;;;5094245;28;20518;-69
2021/11/05 08:29:41;;;;;;;24.95;15.65;;;2.30;99.90;;;;;;5090883;28;20071;-69
2021/11/05 08:32:09;;;;;;;33.38;17.73;;;2.40;99.90;;;;;;5092384;28;20070;-69
2021/11/05 08:34:39;;;;;;;29.95;18.45;;;2.50;99.90;;;;;;5092327;28;20139;-70
2021/11/05 08:37:10;;;;;;;32.22;16.15;;;2.50;99.90;;;;;;5090372;28;20047;-69
2021/11/05 08:39:37;;;;;;;27.60;17.65;;;2.60;99.90;;;;;;5092151;28;20353;-72
2021/11/05 08:42:04;;;;;;;30.17;16.60;;;2.60;99.90;;;;;;5092168;28;20113;-70
2021/11/05 08:44:32;;;;;;;40.70;18.90;;;2.70;99.90;;;;;;5070943;28;20063;-73
2021/11/05 08:47:00;;;;;;;31.52;16.90;;;2.80;99.90;;;;;;5090820;28;20083;-76
2021/11/05 08:49:27;;;;;;;29.58;15.18;;;2.90;99.90;;;;;;5091454;28;20057;-71
2021/11/05 08:51:54;;;;;;;32.35;15.45;;;2.90;99.90;;;;;;5090365;28;20048;-72
2021/11/05 08:54:21;;;;;;;138.50;83.30;;;2.90;99.90;;;;;;5090441;28;20044;-74
2021/11/05 08:56:49;;;;;;;55.75;34.15;;;3.00;99.90;;;;;;5091242;28;20044;-65
2021/11/05 08:59:16;;;;;;;82.53;54.90;;;3.10;99.90;;;;;;5094871;28;20047;-71
2021/11/05 09:01:47;;;;;;;32.95;20.75;;;3.20;99.90;;;;;;5111677;28;20404;-73
2021/11/05 09:04:14;;;;;;;34.08;18.27;;;3.20;99.90;;;;;;5112833;28;20388;-73
2021/11/05 09:06:41;;;;;;;29.48;17.20;;;3.20;99.90;;;;;;5095521;28;20129;-72
2021/11/05 09:09:08;;;;;;;27.88;15.13;;;3.20;99.90;;;;;;5090990;28;20051;-72
2021/11/05 09:11:35;;;;;;;29.40;15.93;;;3.20;99.90;;;;;;5090676;28;20055;-73
2021/11/05 09:14:03;;;;;;;29.25;16.63;;;3.30;99.90;;;;;;5090184;28;20055;-72
2021/11/05 09:16:30;;;;;;;30.20;16.02;;;3.30;99.90;;;;;;5090022;28;20048;-73
2021/11/05 09:18:59;;;;;;;32.45;17.98;;;3.30;99.90;;;;;;5091692;28;20059;-72
2021/11/05 09:21:26;;;;;;;28.75;16.80;;;3.30;99.90;;;;;;5090529;28;20075;-70
2021/11/05 09:23:53;;;;;;;34.17;19.00;;;3.40;99.90;;;;;;5090954;28;20162;-70
2021/11/05 09:26:22;;;;;;;25.63;16.63;;;3.40;99.90;;;;;;5073986;28;20052;-73
2021/11/05 09:28:48;;;;;;;30.55;17.52;;;3.40;99.90;;;;;;5104760;28;20505;-72
2021/11/05 09:31:15;;;;;;;31.13;19.23;;;3.50;99.90;;;;;;5111677;28;20071;-73
2021/11/05 09:33:42;;;;;;;30.13;16.80;;;3.50;99.90;;;;;;5094007;28;20054;-73
2021/11/05 09:36:09;;;;;;;31.15;17.17;;;3.50;99.90;;;;;;5109883;28;20395;-71
2021/11/05 09:38:36;;;;;;;29.67;16.33;;;3.60;99.90;;;;;;5111507;28;20051;-71
2021/11/05 09:41:04;;;;;;;29.67;18.10;;;3.60;99.90;;;;;;5110650;28;20048;-72
2021/11/05 09:43:31;;;;;;;26.05;16.27;;;3.70;99.90;;;;;;5087352;28;20055;-71
2021/11/05 09:45:58;;;;;;;28.70;16.33;;;3.70;99.90;;;;;;5072838;28;20097;-71
2021/11/05 09:48:26;;;;;;;24.92;15.35;;;3.80;99.90;;;;;;5089981;28;20052;-71
2021/11/05 09:50:53;;;;;;;27.65;15.82;;;3.80;99.90;;;;;;5089572;28;20107;-72
2021/11/05 09:53:24;;;;;;;24.90;14.05;;;3.90;99.90;;;;;;5090997;28;20052;-73
2021/11/05 09:55:51;;;;;;;25.15;13.75;;;4.00;99.90;;;;;;5091481;28;20052;-73
2021/11/05 09:58:18;;;;;;;24.42;12.95;;;4.00;99.90;;;;;;5098707;28;20157;-72
2021/11/05 10:00:45;;;;;;;26.58;14.18;;;4.00;99.90;;;;;;5110217;28;20051;-72
2021/11/05 10:03:12;;;;;;;23.75;13.27;;;4.10;99.90;;;;;;5111132;28;20075;-73
2021/11/05 10:05:39;;;;;;;28.58;15.07;;;4.20;99.90;;;;;;5111426;28;20051;-73
2021/11/05 10:08:07;;;;;;;25.40;15.85;;;4.20;99.90;;;;;;5093440;28;20052;-73
2021/11/05 10:10:39;;;;;;;35.92;16.10;;;4.30;99.90;;;;;;5110021;28;20045;-73
2021/11/05 10:13:13;;;;;;;24.77;13.57;;;4.30;99.90;;;;;;5110070;28;20057;-72
2021/11/05 10:15:44;;;;;;;21.88;12.45;;;4.40;99.90;;;;;;5092146;28;20131;-71
2021/11/05 10:18:25;;;;;;;23.85;12.27;;;4.40;99.90;;;;;;5089862;28;20518;-70
2021/11/05 10:21:08;;;;;;;27.20;13.32;;;4.40;99.90;;;;;;5089074;28;20531;-71
2021/11/05 10:23:38;;;;;;;21.90;12.98;;;4.50;99.90;;;;;;5088142;28;20050;-70
2021/11/05 10:26:18;;;;;;;;;;;4.60;99.90;;;;;;5065507;28;20510;-72
2021/11/05 10:28:45;;;;;;;19.45;11.32;;;4.60;99.90;;;;;;5084281;28;20016;-70
2021/11/05 10:31:13;;;;;;;21.33;12.32;;;4.70;99.90;;;;;;5093323;28;20192;-68
2021/11/05 10:33:42;;;;;;;18.25;10.63;;;4.80;99.90;;;;;;5089595;28;20048;-69
2021/11/05 10:36:13;;;;;;;21.60;11.90;;;4.80;99.90;;;;;;5087640;28;20044;-71
2021/11/05 10:38:52;;;;;;;19.25;11.70;;;4.90;99.90;;;;;;5070022;28;20696;-74
2021/11/05 10:41:20;;;;;;;25.60;13.43;;;5.00;99.90;;;;;;5089721;28;20087;-74
2021/11/05 10:44:15;;;;;;;23.67;11.85;;;5.00;99.90;;;;;;5089589;28;20118;-73
2021/11/05 10:46:42;;;;;;;22.13;10.80;;;5.10;99.90;;;;;;5088004;28;20473;-73
2021/11/05 10:49:25;;;;;;;19.83;10.60;;;5.10;99.90;;;;;;5088204;28;20048;-73
2021/11/05 10:51:52;;;;;;;18.02;10.60;;;5.20;99.90;;;;;;5088217;28;20099;-73
2021/11/05 10:54:19;;;;;;;13.25;9.48;;;5.30;99.60;;;;;;5089099;28;20515;-73
2021/11/05 10:56:47;;;;;;;17.45;10.18;;;5.40;99.70;;;;;;5104693;28;20052;-73
2021/11/05 10:59:14;;;;;;;19.35;9.65;;;5.40;98.90;;;;;;5101261;28;20044;-73
2021/11/05 11:01:42;;;;;;;95.13;75.15;;;5.50;99.30;;;;;;5090576;28;20052;-74
2021/11/05 11:04:10;;;;;;;243.43;191.35;;;5.60;99.10;;;;;;5055994;28;20088;-75
2021/11/05 11:06:45;;;;;;;40.88;27.02;;;5.70;98.60;;;;;;5090518;28;20055;-73
2021/11/05 11:09:14;;;;;;;18.40;11.15;;;5.70;97.70;;;;;;5088928;28;20495;-73
2021/11/05 11:11:42;;;;;;;17.48;10.15;;;5.80;96.70;;;;;;5088746;28;20258;-73
2021/11/05 11:14:16;;;;;;;13.90;7.53;;;5.80;97.50;;;;;;5088883;28;20048;-74
2021/11/05 11:16:57;;;;;;;14.88;8.70;;;5.80;96.80;;;;;;5089884;28;20549;-73
2021/11/05 11:19:33;;;;;;;12.23;8.07;;;5.90;96.60;;;;;;5090689;28;20044;-73
2021/11/05 11:22:05;;;;;;;13.95;7.32;;;6.00;96.20;;;;;;5077736;28;20048;-73
2021/11/05 11:24:37;;;;;;;15.70;7.47;;;6.00;96.80;;;;;;5097171;28;20058;-74
2021/11/05 11:27:06;;;;;;;12.80;7.53;;;6.00;95.80;;;;;;5094704;28;20040;-73
2021/11/05 11:29:52;;;;;;;11.77;6.82;;;6.10;96.70;;;;;;5075487;28;20096;-73
2021/11/05 11:32:19;;;;;;;14.35;6.78;;;6.00;96.30;;;;;;5074918;28;20060;-73
2021/11/05 11:34:47;;;;;;;12.20;6.85;;;6.10;96.40;;;;;;5075217;28;20378;-73
2021/11/05 11:37:14;;;;;;;13.10;7.90;;;6.20;96.20;;;;;;5076393;28;20044;-73
2021/11/05 11:39:43;;;;;;;14.82;7.60;;;6.20;96.80;;;;;;5074851;28;20045;-73
2021/11/05 11:42:10;;;;;;;12.52;7.72;;;6.20;96.70;;;;;;5074454;28;20044;-73
2021/11/05 11:44:37;;;;;;;13.93;7.22;;;6.30;95.30;;;;;;5085461;28;20052;-73
2021/11/05 11:47:06;;;;;;;14.63;7.28;;;6.30;96.10;;;;;;5090952;28;20048;-73
2021/11/05 11:49:34;;;;;;;10.60;6.83;;;6.30;95.20;;;;;;5092959;28;20050;-73
2021/11/05 11:52:01;;;;;;;10.98;6.82;;;6.40;95.80;;;;;;5092514;28;20048;-73
2021/11/05 11:54:30;;;;;;;15.75;9.05;;;6.40;95.60;;;;;;5091250;28;20048;-73
2021/11/05 11:57:13;;;;;;;12.20;5.93;;;6.40;95.60;;;;;;5090386;28;20043;-75
2021/11/05 11:59:41;;;;;;;11.32;6.75;;;6.50;94.30;;;;;;5080842;28;20048;-73
2021/11/05 12:02:34;;;;;;;10.50;6.68;;;6.60;94.10;;;;;;5090326;28;20067;-75
2021/11/05 12:05:20;;;;;;;14.48;7.18;;;6.70;93.90;;;;;;5079224;28;20400;-73
2021/11/05 12:08:17;;;;;;;9.27;5.80;;;6.70;94.50;;;;;;5060359;28;20059;-74
2021/11/05 12:11:06;;;;;;;11.05;5.65;;;6.80;93.20;;;;;;5076264;28;20399;-73
2021/11/05 12:13:33;;;;;;;;;;;6.80;93.90;;;;;;5077408;28;20043;-73
2021/11/05 12:16:15;;;;;;;8.10;4.32;;;6.80;94.00;;;;;;5096213;28;19926;-75
2021/11/05 12:18:58;;;;;;;14.20;6.50;;;6.90;91.50;;;;;;5094217;28;20051;-73
2021/11/05 12:21:30;;;;;;;9.38;4.50;;;6.90;91.80;;;;;;5093073;28;20535;-73
2021/11/05 12:24:31;;;;;;;6.97;4.47;;;6.90;91.90;;;;;;5094641;28;20052;-73
2021/11/05 12:27:08;;;;;;;6.38;4.50;;;6.90;91.40;;;;;;5096442;28;20434;-73
2021/11/05 12:29:37;;;;;;;8.63;3.67;;;7.00;91.40;;;;;;5098739;28;20126;-73
2021/11/05 12:32:13;;;;;;;6.30;3.42;;;7.10;91.30;;;;;;5112283;28;20058;-73
2021/11/05 12:34:56;;;;;;;7.13;4.05;;;7.10;90.80;;;;;;5097013;28;20048;-73
2021/11/05 12:37:33;;;;;;;9.18;5.28;;;7.20;90.30;;;;;;5072000;28;20051;-73
2021/11/05 12:40:36;;;;;;;6.82;4.35;;;7.20;90.30;;;;;;5072248;28;20063;-73
2021/11/05 12:43:13;;;;;;;12.00;7.07;;;7.20;90.10;;;;;;5072563;28;20094;-72
2021/11/05 12:45:54;;;;;;;5.70;4.53;;;7.20;90.80;;;;;;5087806;28;20507;-73
2021/11/05 12:48:36;;;;;;;8.20;4.35;;;7.20;87.70;;;;;;5072541;28;20237;-73
2021/11/05 12:51:07;;;;;;;7.78;4.03;;;7.30;90.20;;;;;;5072035;28;20184;-73
2021/11/05 12:53:34;;;;;;;6.00;4.00;;;7.30;87.50;;;;;;5070441;28;20566;-73